createdAt,value
2022-09-23T00:10:33.887Z,98992.03
2022-09-23T00:13:06.984Z,98993.81
2022-09-23T00:15:44.890Z,98986.69
2022-09-23T00:18:18.626Z,98986.78
2022-09-23T00:20:51.874Z,98987.75
2022-09-23T00:23:24.993Z,98986.97
2022-09-23T00:39:38.893Z,98960.09
2022-09-23T00:42:16.485Z,98965.44
2022-09-23T00:44:59.865Z,98964.50
2022-09-23T00:47:40.576Z,98961.81
2022-09-23T00:50:29.865Z,98956.88
2022-09-23T00:53:08.240Z,98960.50
2022-09-23T01:06:05.838Z,98937.81
2022-09-23T01:08:46.857Z,98936.09
2022-09-23T01:11:46.838Z,98944.09
2022-09-23T01:14:48.857Z,98939.16
2022-09-23T01:17:37.061Z,98948.19
2022-09-23T01:31:02.682Z,98942.00
2022-09-23T01:33:54.861Z,98938.66
2022-09-23T01:36:39.730Z,98930.78
2022-09-23T01:39:29.895Z,98924.66
2022-09-23T01:42:12.285Z,98935.50
2022-09-23T01:45:00.893Z,98936.56
2022-09-23T01:47:41.911Z,98933.22
2022-09-23T01:57:33.882Z,98925.63
2022-09-23T02:00:14.651Z,98924.00
2022-09-23T02:03:03.845Z,98918.75
2022-09-23T02:05:44.023Z,98920.66
2022-09-23T02:08:30.872Z,98916.28
2022-09-23T02:11:09.998Z,98912.88
2022-09-23T02:13:58.874Z,98910.38
2022-09-23T02:24:19.841Z,98908.09
2022-09-23T02:27:05.870Z,98903.69
2022-09-23T02:29:50.034Z,98902.97
2022-09-23T02:32:42.862Z,98905.63
2022-09-23T02:35:26.328Z,98904.84
2022-09-23T02:38:26.861Z,98908.56
2022-09-23T02:54:16.474Z,98896.78
2022-09-23T02:56:43.318Z,98902.19
2022-09-23T02:59:26.854Z,98897.03
2022-09-23T03:02:22.063Z,98898.00
2022-09-23T03:05:13.848Z,98888.28
2022-09-23T03:08:14.136Z,98891.16
2022-09-23T03:17:57.864Z,98876.47
2022-09-23T03:20:39.546Z,98871.97
2022-09-23T03:23:28.879Z,98872.09
2022-09-23T03:26:10.547Z,98863.31
2022-09-23T03:28:52.879Z,98865.03
2022-09-23T03:31:26.127Z,98866.75
2022-09-23T03:44:31.827Z,98849.03
2022-09-23T03:47:12.841Z,98852.66
2022-09-23T03:49:49.187Z,98847.31
2022-09-23T03:52:22.854Z,98847.41
2022-09-23T03:54:56.335Z,98847.53
2022-09-23T03:57:29.866Z,98848.56
2022-09-23T04:11:16.842Z,98841.06
2022-09-23T04:13:49.912Z,98847.22
2022-09-23T04:16:16.571Z,98839.34
2022-09-23T04:18:56.854Z,98843.88
2022-09-23T04:21:29.978Z,98844.84
2022-09-23T04:24:10.863Z,98832.47
2022-09-23T04:26:45.966Z,98833.44
2022-09-23T04:39:33.806Z,98822.16
2022-09-23T04:42:15.858Z,98825.81
2022-09-23T04:44:49.147Z,98827.50
2022-09-23T04:47:15.719Z,98827.50
2022-09-23T04:49:59.721Z,98825.81
2022-09-23T04:52:32.994Z,98826.75
2022-09-23T05:05:23.799Z,98831.50
2022-09-23T05:08:03.862Z,98828.84
2022-09-23T05:10:36.935Z,98828.06
2022-09-23T05:13:10.837Z,98833.56
2022-09-23T05:15:44.032Z,98831.88
2022-09-23T05:18:10.577Z,98838.91
2022-09-23T05:31:32.844Z,98838.06
2022-09-23T05:34:12.869Z,98835.50
2022-09-23T05:36:45.913Z,98834.72
2022-09-23T05:39:12.494Z,98828.63
2022-09-23T05:41:53.852Z,98835.75
2022-09-23T05:44:30.983Z,98835.66
2022-09-23T05:47:05.920Z,98835.66
2022-09-23T06:00:17.843Z,98833.09
2022-09-23T06:02:52.939Z,98831.47
2022-09-23T06:05:25.859Z,98828.97
2022-09-23T06:07:59.102Z,98830.81
2022-09-23T06:10:25.658Z,98825.75
2022-09-23T06:13:05.866Z,98835.66
2022-09-23T06:26:19.830Z,98836.41
2022-09-23T06:28:52.899Z,98834.31
2022-09-23T06:31:19.482Z,98836.91
2022-09-23T06:34:09.255Z,98826.31
2022-09-23T06:36:46.412Z,98834.03
2022-09-23T06:53:01.830Z,98838.06
2022-09-23T06:55:34.985Z,98835.28
2022-09-23T06:58:01.578Z,98829.13
2022-09-23T07:00:41.824Z,98829.97
2022-09-23T07:03:14.899Z,98834.25
2022-09-23T07:05:41.437Z,98837.78
2022-09-23T07:08:23.855Z,98839.56
2022-09-23T07:18:31.035Z,98841.28
2022-09-23T07:21:17.814Z,98834.91
2022-09-23T07:23:52.886Z,98842.84
2022-09-23T07:26:26.830Z,98833.81
2022-09-23T07:29:02.011Z,98832.84
2022-09-23T07:31:39.264Z,98841.59
2022-09-23T07:45:17.809Z,98839.50
2022-09-23T07:47:50.927Z,98848.28
2022-09-23T07:50:17.719Z,98848.06
2022-09-23T07:52:58.723Z,98846.19
2022-09-23T07:55:31.886Z,98844.28
2022-09-23T07:58:04.836Z,98844.09
2022-09-23T08:12:01.827Z,98843.31
2022-09-23T08:14:35.043Z,98848.47
2022-09-23T08:17:01.634Z,98840.28
2022-09-23T08:19:41.806Z,98840.09
2022-09-23T08:22:14.854Z,98844.50
2022-09-23T08:24:41.418Z,98841.72
2022-09-23T08:27:23.823Z,98846.00
2022-09-23T08:40:33.869Z,98845.22
2022-09-23T08:43:22.266Z,98845.88
2022-09-23T08:46:09.867Z,98837.59
2022-09-23T08:48:46.326Z,98842.84
2022-09-23T08:51:34.816Z,98840.81
2022-09-23T09:05:29.827Z,98829.38
2022-09-23T09:08:05.573Z,98825.53
2022-09-23T09:10:46.836Z,98822.56
2022-09-23T09:13:31.089Z,98823.41
2022-09-23T09:16:58.370Z,98830.28
2022-09-23T09:33:37.795Z,98822.09
2022-09-23T09:36:34.793Z,98823.28
2022-09-23T09:39:13.654Z,98812.97
2022-09-23T09:41:56.838Z,98813.19
2022-09-23T09:44:40.150Z,98802.75
2022-09-23T09:47:37.835Z,98802.97
2022-09-23T10:00:52.786Z,98783.63
2022-09-23T10:03:36.894Z,98784.34
2022-09-23T10:06:25.770Z,98769.94
2022-09-23T10:09:15.304Z,98773.13
2022-09-23T10:12:17.758Z,98762.97
2022-09-23T10:26:01.750Z,98762.28
2022-09-23T10:28:46.427Z,98762.19
2022-09-23T10:31:33.746Z,98762.91
2022-09-23T10:34:26.260Z,98760.47
2022-09-23T10:37:18.726Z,98770.59
2022-09-23T10:54:07.834Z,98755.44
2022-09-23T10:57:00.599Z,98752.97
2022-09-23T10:59:57.120Z,98756.88
2022-09-23T11:03:08.610Z,98758.81
2022-09-23T11:05:58.781Z,98751.03
2022-09-23T11:09:01.766Z,98736.84
2022-09-23T11:19:20.737Z,98725.97
2022-09-23T11:22:23.760Z,98722.31
2022-09-23T11:25:26.598Z,98713.19
2022-09-23T11:28:45.839Z,98717.69
2022-09-23T11:31:36.812Z,98719.66
2022-09-23T11:48:06.769Z,98683.38
2022-09-23T11:50:47.527Z,98687.13
2022-09-23T11:53:38.786Z,98678.44
2022-09-23T11:56:31.543Z,98671.44
2022-09-23T11:59:36.734Z,98667.88
2022-09-23T12:02:28.161Z,98671.31
2022-09-23T12:12:45.782Z,98668.25
2022-09-23T12:15:39.647Z,98671.91
2022-09-23T12:18:52.769Z,98663.41
2022-09-23T12:21:59.062Z,98662.97
2022-09-23T12:24:59.785Z,98658.84
2022-09-23T12:27:38.535Z,98657.28
2022-09-23T12:40:40.858Z,98639.88
2022-09-23T12:43:30.013Z,98642.47
2022-09-23T12:46:21.955Z,98639.97
2022-09-23T12:49:07.809Z,98630.16
2022-09-23T12:52:30.754Z,98629.06
2022-09-23T13:06:12.745Z,98623.53
2022-09-23T13:08:56.657Z,98618.72
2022-09-23T13:11:32.350Z,98610.69
2022-09-23T13:14:10.817Z,98608.72
2022-09-23T13:16:45.108Z,98608.66
2022-09-23T13:19:49.771Z,98599.13
2022-09-23T13:23:02.435Z,98602.34
2022-09-23T13:33:11.788Z,98585.09
2022-09-23T13:35:50.874Z,98581.47
2022-09-23T13:38:33.782Z,98584.34
2022-09-23T13:41:13.926Z,98572.44
2022-09-23T13:43:56.802Z,98566.25
2022-09-23T13:46:39.591Z,98575.34
2022-09-23T13:59:51.748Z,98558.53
2022-09-23T14:02:31.855Z,98565.34
2022-09-23T14:05:11.696Z,98566.03
2022-09-23T14:07:51.823Z,98564.78
2022-09-23T14:10:25.688Z,98564.47
2022-09-23T14:13:02.678Z,98565.75
2022-09-23T14:26:35.810Z,98546.06
2022-09-23T14:29:16.487Z,98534.94
2022-09-23T14:32:01.815Z,98529.41
2022-09-23T14:34:41.550Z,98526.28
2022-09-23T14:37:33.779Z,98522.59
2022-09-23T14:40:16.877Z,98528.16
2022-09-23T14:43:05.788Z,98523.16
2022-09-23T14:53:39.774Z,98521.91
2022-09-23T14:56:26.787Z,98511.06
2022-09-23T14:59:01.927Z,98517.88
2022-09-23T15:01:44.788Z,98509.50
2022-09-23T15:04:32.359Z,98515.38
2022-09-23T15:07:21.818Z,98511.53
2022-09-23T15:20:33.802Z,98512.56
2022-09-23T15:23:33.720Z,98515.69
2022-09-23T15:26:18.814Z,98514.50
2022-09-23T15:28:55.561Z,98507.56
2022-09-23T15:31:35.837Z,98505.75
2022-09-23T15:34:10.474Z,98495.16
2022-09-23T15:47:00.802Z,98492.13
2022-09-23T15:49:43.794Z,98494.84
2022-09-23T15:52:16.869Z,98499.34
2022-09-23T15:54:43.459Z,98497.69
2022-09-23T15:57:23.810Z,98498.81
2022-09-23T15:59:57.080Z,98496.41
2022-09-23T16:02:31.865Z,98489.63
2022-09-23T16:15:41.293Z,98477.03
2022-09-23T16:18:16.793Z,98480.59
2022-09-23T16:20:51.790Z,98485.84
2022-09-23T16:23:28.640Z,98471.41
2022-09-23T16:26:12.800Z,98478.47
2022-09-23T16:28:48.616Z,98473.81
2022-09-23T16:41:38.760Z,98480.56
2022-09-23T16:44:18.819Z,98479.44
2022-09-23T16:46:51.849Z,98481.78
2022-09-23T16:49:18.439Z,98482.31
2022-09-23T16:51:58.807Z,98485.69
2022-09-23T17:08:35.754Z,98467.72
2022-09-23T17:11:15.823Z,98471.81
2022-09-23T17:13:49.981Z,98469.06
2022-09-23T17:16:33.091Z,98468.63
2022-09-23T17:19:07.899Z,98461.94
2022-09-23T17:21:41.770Z,98463.91
2022-09-23T17:24:16.820Z,98465.03
2022-09-23T17:33:47.779Z,98458.13
2022-09-23T17:36:21.166Z,98458.53
2022-09-23T17:38:56.802Z,98454.28
2022-09-23T17:41:31.938Z,98457.22
2022-09-23T17:44:04.798Z,98463.72
2022-09-23T17:46:37.875Z,98458.59
2022-09-23T17:49:04.554Z,98458.88
2022-09-23T18:02:00.850Z,98461.03
2022-09-23T18:04:40.806Z,98466.63
2022-09-23T18:07:13.876Z,98472.28
2022-09-23T18:09:40.519Z,98465.34
2022-09-23T18:12:20.802Z,98469.97
2022-09-23T18:28:58.770Z,98461.63
2022-09-23T18:31:41.873Z,98467.13
2022-09-23T18:34:16.138Z,98468.38
2022-09-23T18:36:49.818Z,98471.16
2022-09-23T18:39:22.890Z,98456.16
2022-09-23T18:41:49.499Z,98461.81
2022-09-23T18:54:45.771Z,98456.47
2022-09-23T18:57:25.884Z,98457.44
2022-09-23T19:00:06.824Z,98459.41
2022-09-23T19:02:46.797Z,98451.63
2022-09-23T19:05:19.976Z,98449.91
2022-09-23T19:07:46.522Z,98456.25
2022-09-23T19:20:58.773Z,98458.97
2022-09-23T19:23:40.442Z,98462.59
2022-09-23T19:26:16.779Z,98463.44
2022-09-23T19:28:54.795Z,98460.66
2022-09-23T19:31:30.901Z,98463.34
2022-09-23T19:34:06.853Z,98458.81
2022-09-23T19:47:32.782Z,98460.88
2022-09-23T19:50:07.181Z,98460.03
2022-09-23T19:52:40.813Z,98459.16
2022-09-23T19:55:14.151Z,98458.31
2022-09-23T19:57:40.687Z,98459.16
2022-09-23T20:00:21.806Z,98448.44
2022-09-23T20:03:00.071Z,98459.16
2022-09-23T20:15:54.795Z,98454.44
2022-09-23T20:18:36.813Z,98450.91
2022-09-23T20:21:13.166Z,98449.22
2022-09-23T20:23:47.571Z,98449.22
2022-09-23T20:26:20.832Z,98444.69
2022-09-23T20:28:54.786Z,98444.81
2022-09-23T20:42:05.780Z,98426.81
2022-09-23T20:44:39.258Z,98430.47
2022-09-23T20:47:12.844Z,98427.91
2022-09-23T20:49:45.986Z,98425.22
2022-09-23T20:52:22.775Z,98436.06
2022-09-23T21:09:00.745Z,98418.09
2022-09-23T21:11:40.787Z,98416.59
2022-09-23T21:14:13.902Z,98417.56
2022-09-23T21:16:40.541Z,98407.13
2022-09-23T21:19:20.777Z,98411.66
2022-09-23T21:21:54.234Z,98411.75
2022-09-23T21:34:29.751Z,98407.63
2022-09-23T21:37:09.809Z,98407.84
2022-09-23T21:39:44.822Z,98408.94
2022-09-23T21:42:17.767Z,98404.69
2022-09-23T21:44:50.851Z,98410.06
2022-09-23T21:47:17.387Z,98409.22
2022-09-23T22:03:38.912Z,98408.59
2022-09-23T22:06:14.955Z,98401.53
2022-09-23T22:08:49.801Z,98387.31
2022-09-23T22:11:25.539Z,98389.38
2022-09-23T22:13:58.761Z,98378.69
2022-09-23T22:27:54.597Z,98388.16
2022-09-23T22:30:29.742Z,98381.38
2022-09-23T22:33:02.753Z,98381.38
2022-09-23T22:35:35.845Z,98379.88
2022-09-23T22:38:02.393Z,98376.25
2022-09-23T22:40:42.820Z,98381.59
2022-09-23T22:43:15.970Z,98372.59
2022-09-23T22:56:05.745Z,98373.44
2022-09-23T22:58:45.757Z,98365.53
2022-09-23T23:01:18.897Z,98366.50
2022-09-23T23:03:45.776Z,98361.41
2022-09-23T23:06:25.754Z,98360.41
2022-09-23T23:08:58.820Z,98361.41
2022-09-23T23:21:48.750Z,98349.50
2022-09-23T23:24:29.774Z,98354.09
2022-09-23T23:27:02.877Z,98348.00
2022-09-23T23:29:29.426Z,98345.59
2022-09-23T23:32:10.974Z,98336.81
2022-09-23T23:34:43.799Z,98348.50
2022-09-23T23:37:20.893Z,98346.81
2022-09-23T23:50:30.777Z,98331.22
2022-09-23T23:53:05.726Z,98334.84
2022-09-23T23:55:43.772Z,98332.41
2022-09-23T23:58:17.733Z,98335.34
